sensor_id;sensor_type;location;lat;lon;timestamp;pressure;altitude;pressure_sealevel;temperature;humidity
967;BME280;56108;48.730;9.304;2024-01-30T00:01:25;98890.63;;;3.51;100.00
967;BME280;56108;48.730;9.304;2024-01-30T00:03:34;98893.78;;;3.25;100.00
967;BME280;56108;48.730;9.304;2024-01-30T00:05:40;98884.47;;;3.06;100.00
967;BME280;56108;48.730;9.304;2024-01-30T00:07:48;98873.34;;;2.93;100.00
967;BME280;56108;48.730;9.304;2024-01-30T00:09:56;98881.63;;;3.18;100.00
967;BME280;56108;48.730;9.304;2024-01-30T00:12:05;98883.84;;;3.38;100.00
967;BME280;56108;48.730;9.304;2024-01-30T00:14:13;98885.88;;;3.25;100.00
967;BME280;56108;48.730;9.304;2024-01-30T00:16:22;98886.63;;;3.32;100.00
967;BME280;56108;48.730;9.304;2024-01-30T00:18:32;98882.59;;;3.12;100.00
967;BME280;56108;48.730;9.304;2024-01-30T00:20:40;98879.47;;;2.94;100.00
967;BME280;56108;48.730;9.304;2024-01-30T00:22:45;98880.44;;;2.86;100.00
967;BME280;56108;48.730;9.304;2024-01-30T00:24:54;98883.19;;;2.82;100.00
967;BME280;56108;48.730;9.304;2024-01-30T00:26:59;98881.38;;;2.84;100.00
967;BME280;56108;48.730;9.304;2024-01-30T00:29:07;98886.59;;;2.85;100.00
967;BME280;56108;48.730;9.304;2024-01-30T00:31:16;98883.41;;;2.68;100.00
967;BME280;56108;48.730;9.304;2024-01-30T00:33:26;98874.84;;;2.57;100.00
967;BME280;56108;48.730;9.304;2024-01-30T00:35:37;98880.97;;;2.57;100.00
967;BME280;56108;48.730;9.304;2024-01-30T00:37:46;98878.81;;;2.81;100.00
967;BME280;56108;48.730;9.304;2024-01-30T00:39:53;98884.53;;;3.04;100.00
967;BME280;56108;48.730;9.304;2024-01-30T00:42:01;98888.47;;;3.27;100.00
967;BME280;56108;48.730;9.304;2024-01-30T00:44:09;98887.66;;;3.25;100.00
967;BME280;56108;48.730;9.304;2024-01-30T00:46:15;98883.28;;;3.22;100.00
967;BME280;56108;48.730;9.304;2024-01-30T00:48:24;98885.88;;;3.25;100.00
967;BME280;56108;48.730;9.304;2024-01-30T00:50:32;98883.91;;;3.36;100.00
967;BME280;56108;48.730;9.304;2024-01-30T00:52:40;98884.75;;;3.37;100.00
967;BME280;56108;48.730;9.304;2024-01-30T00:54:50;98879.84;;;3.20;100.00
967;BME280;56108;48.730;9.304;2024-01-30T00:56:58;98881.56;;;3.21;100.00
967;BME280;56108;48.730;9.304;2024-01-30T00:59:07;98886.78;;;3.24;100.00
967;BME280;56108;48.730;9.304;2024-01-30T01:01:17;98884.25;;;3.18;100.00
967;BME280;56108;48.730;9.304;2024-01-30T01:03:25;98889.56;;;3.15;100.00
967;BME280;56108;48.730;9.304;2024-01-30T01:05:34;98892.13;;;3.18;100.00
967;BME280;56108;48.730;9.304;2024-01-30T01:07:44;98895.69;;;3.16;100.00
967;BME280;56108;48.730;9.304;2024-01-30T01:09:53;98891.47;;;3.08;100.00
967;BME280;56108;48.730;9.304;2024-01-30T01:12:02;98888.81;;;3.10;100.00
967;BME280;56108;48.730;9.304;2024-01-30T01:14:10;98895.09;;;3.03;100.00
967;BME280;56108;48.730;9.304;2024-01-30T01:16:23;98889.31;;;2.81;100.00
967;BME280;56108;48.730;9.304;2024-01-30T01:18:31;98895.72;;;2.65;100.00
967;BME280;56108;48.730;9.304;2024-01-30T01:20:40;98883.50;;;2.64;100.00
967;BME280;56108;48.730;9.304;2024-01-30T01:22:51;98885.38;;;2.55;100.00
967;BME280;56108;48.730;9.304;2024-01-30T01:24:59;98881.94;;;2.52;100.00
967;BME280;56108;48.730;9.304;2024-01-30T01:27:08;98878.66;;;2.38;100.00
967;BME280;56108;48.730;9.304;2024-01-30T01:29:16;98880.91;;;2.06;100.00
967;BME280;56108;48.730;9.304;2024-01-30T01:31:26;98885.63;;;1.81;100.00
967;BME280;56108;48.730;9.304;2024-01-30T01:33:35;98873.38;;;1.82;100.00
967;BME280;56108;48.730;9.304;2024-01-30T01:35:43;98869.41;;;1.53;100.00
967;BME280;56108;48.730;9.304;2024-01-30T01:37:54;98875.66;;;1.42;100.00
967;BME280;56108;48.730;9.304;2024-01-30T01:40:06;98864.19;;;1.49;100.00
967;BME280;56108;48.730;9.304;2024-01-30T01:42:15;98860.53;;;1.62;100.00
967;BME280;56108;48.730;9.304;2024-01-30T01:44:24;98870.19;;;1.59;100.00
967;BME280;56108;48.730;9.304;2024-01-30T01:46:33;98868.25;;;1.74;100.00
967;BME280;56108;48.730;9.304;2024-01-30T01:48:42;98864.78;;;1.71;100.00
967;BME280;56108;48.730;9.304;2024-01-30T01:50:48;98869.09;;;1.75;100.00
967;BME280;56108;48.730;9.304;2024-01-30T01:52:59;98862.09;;;1.75;100.00
967;BME280;56108;48.730;9.304;2024-01-30T01:55:08;98874.28;;;1.79;100.00
967;BME280;56108;48.730;9.304;2024-01-30T01:57:16;98862.94;;;1.77;100.00
967;BME280;56108;48.730;9.304;2024-01-30T01:59:25;98869.34;;;1.58;100.00
967;BME280;56108;48.730;9.304;2024-01-30T02:01:34;98869.59;;;1.38;100.00
967;BME280;56108;48.730;9.304;2024-01-30T02:03:40;98862.50;;;1.45;100.00
967;BME280;56108;48.730;9.304;2024-01-30T02:05:49;98866.88;;;1.44;100.00
967;BME280;56108;48.730;9.304;2024-01-30T02:08:01;98859.88;;;1.46;100.00
967;BME280;56108;48.730;9.304;2024-01-30T02:10:09;98866.16;;;1.33;100.00
967;BME280;56108;48.730;9.304;2024-01-30T02:12:20;98860.13;;;1.26;100.00
967;BME280;56108;48.730;9.304;2024-01-30T02:14:28;98857.53;;;1.22;100.00
967;BME280;56108;48.730;9.304;2024-01-30T02:16:36;98860.16;;;1.22;100.00
967;BME280;56108;48.730;9.304;2024-01-30T02:18:45;98860.88;;;1.35;100.00
967;BME280;56108;48.730;9.304;2024-01-30T02:20:56;98864.44;;;1.30;100.00
967;BME280;56108;48.730;9.304;2024-01-30T02:23:10;98857.69;;;1.08;100.00
967;BME280;56108;48.730;9.304;2024-01-30T02:25:19;98854.41;;;0.91;100.00
967;BME280;56108;48.730;9.304;2024-01-30T02:27:28;98853.47;;;0.96;100.00
967;BME280;56108;48.730;9.304;2024-01-30T02:29:36;98854.31;;;0.97;100.00
967;BME280;56108;48.730;9.304;2024-01-30T02:31:44;98850.84;;;0.93;100.00
967;BME280;56108;48.730;9.304;2024-01-30T02:33:51;98842.16;;;0.91;100.00
967;BME280;56108;48.730;9.304;2024-01-30T02:35:59;98842.06;;;1.00;100.00
967;BME280;56108;48.730;9.304;2024-01-30T02:38:09;98837.63;;;1.06;100.00
967;BME280;56108;48.730;9.304;2024-01-30T02:40:17;98845.56;;;0.98;100.00
967;BME280;56108;48.730;9.304;2024-01-30T02:42:23;98844.81;;;0.90;100.00
967;BME280;56108;48.730;9.304;2024-01-30T02:44:31;98840.44;;;0.89;100.00
967;BME280;56108;48.730;9.304;2024-01-30T02:46:39;98837.09;;;0.76;100.00
967;BME280;56108;48.730;9.304;2024-01-30T02:48:48;98840.59;;;0.75;100.00
967;BME280;56108;48.730;9.304;2024-01-30T02:50:56;98832.63;;;0.83;100.00
967;BME280;56108;48.730;9.304;2024-01-30T02:53:04;98832.63;;;0.84;100.00
967;BME280;56108;48.730;9.304;2024-01-30T02:55:15;98834.28;;;0.93;100.00
967;BME280;56108;48.730;9.304;2024-01-30T02:57:23;98829.91;;;0.95;100.00
967;BME280;56108;48.730;9.304;2024-01-30T02:59:29;98837.66;;;1.02;100.00
967;BME280;56108;48.730;9.304;2024-01-30T03:01:44;98838.50;;;1.06;100.00
967;BME280;56108;48.730;9.304;2024-01-30T03:03:53;98836.56;;;1.22;100.00
967;BME280;56108;48.730;9.304;2024-01-30T03:06:02;98840.84;;;1.29;100.00
967;BME280;56108;48.730;9.304;2024-01-30T03:08:10;98837.25;;;1.38;100.00
967;BME280;56108;48.730;9.304;2024-01-30T03:10:21;98845.91;;;1.43;100.00
967;BME280;56108;48.730;9.304;2024-01-30T03:12:29;98846.75;;;1.46;100.00
967;BME280;56108;48.730;9.304;2024-01-30T03:14:37;98846.78;;;1.43;100.00
967;BME280;56108;48.730;9.304;2024-01-30T03:16:45;98844.00;;;1.55;100.00
967;BME280;56108;48.730;9.304;2024-01-30T03:18:53;98845.63;;;1.64;100.00
967;BME280;56108;48.730;9.304;2024-01-30T03:21:02;98852.44;;;1.79;100.00
967;BME280;56108;48.730;9.304;2024-01-30T03:23:10;98856.66;;;1.89;100.00
967;BME280;56108;48.730;9.304;2024-01-30T03:25:20;98863.47;;;2.01;100.00
967;BME280;56108;48.730;9.304;2024-01-30T03:27:29;98866.88;;;2.07;100.00
967;BME280;56108;48.730;9.304;2024-01-30T03:29:37;98873.84;;;2.08;100.00
967;BME280;56108;48.730;9.304;2024-01-30T03:31:46;98877.44;;;2.03;100.00
967;BME280;56108;48.730;9.304;2024-01-30T03:33:54;98874.00;;;1.98;100.00
967;BME280;56108;48.730;9.304;2024-01-30T03:36:04;98871.59;;;1.84;100.00
967;BME280;56108;48.730;9.304;2024-01-30T03:38:13;98873.50;;;1.71;100.00
967;BME280;56108;48.730;9.304;2024-01-30T03:40:23;98873.69;;;1.59;100.00
967;BME280;56108;48.730;9.304;2024-01-30T03:42:31;98873.84;;;1.45;100.00
967;BME280;56108;48.730;9.304;2024-01-30T03:44:39;98871.22;;;1.47;100.00
967;BME280;56108;48.730;9.304;2024-01-30T03:46:48;98860.66;;;1.53;100.00
967;BME280;56108;48.730;9.304;2024-01-30T03:48:56;98863.06;;;1.67;100.00
967;BME280;56108;48.730;9.304;2024-01-30T03:51:04;98864.84;;;1.68;100.00
967;BME280;56108;48.730;9.304;2024-01-30T03:53:13;98868.47;;;1.56;100.00
967;BME280;56108;48.730;9.304;2024-01-30T03:55:24;98869.34;;;1.58;100.00
967;BME280;56108;48.730;9.304;2024-01-30T03:57:32;98870.22;;;1.57;100.00
967;BME280;56108;48.730;9.304;2024-01-30T03:59:41;98867.47;;;1.66;100.00
967;BME280;56108;48.730;9.304;2024-01-30T04:01:50;98868.22;;;1.76;100.00
967;BME280;56108;48.730;9.304;2024-01-30T04:03:56;98872.66;;;1.71;100.00
967;BME280;56108;48.730;9.304;2024-01-30T04:06:04;98871.81;;;1.69;100.00
967;BME280;56108;48.730;9.304;2024-01-30T04:08:12;98874.31;;;1.76;100.00
967;BME280;56108;48.730;9.304;2024-01-30T04:10:20;98874.72;;;1.47;100.00
967;BME280;56108;48.730;9.304;2024-01-30T04:12:32;98870.41;;;1.43;100.00
967;BME280;56108;48.730;9.304;2024-01-30T04:14:40;98870.41;;;1.40;100.00
967;BME280;56108;48.730;9.304;2024-01-30T04:16:48;98864.34;;;1.38;100.00
967;BME280;56108;48.730;9.304;2024-01-30T04:18:58;98871.28;;;1.41;100.00
967;BME280;56108;48.730;9.304;2024-01-30T04:21:06;98866.03;;;1.41;100.00
967;BME280;56108;48.730;9.304;2024-01-30T04:23:14;98870.31;;;1.49;100.00
967;BME280;56108;48.730;9.304;2024-01-30T04:25:22;98870.41;;;1.42;100.00
967;BME280;56108;48.730;9.304;2024-01-30T04:27:33;98867.91;;;1.33;100.00
967;BME280;56108;48.730;9.304;2024-01-30T04:29:41;98859.19;;;1.29;100.00
967;BME280;56108;48.730;9.304;2024-01-30T04:31:49;98850.53;;;1.25;100.00
967;BME280;56108;48.730;9.304;2024-01-30T04:33:58;98861.88;;;1.26;100.00
967;BME280;56108;48.730;9.304;2024-01-30T04:36:08;98859.34;;;1.17;100.00
967;BME280;56108;48.730;9.304;2024-01-30T04:38:17;98858.56;;;1.10;100.00
967;BME280;56108;48.730;9.304;2024-01-30T04:40:25;98855.69;;;1.30;100.00
967;BME280;56108;48.730;9.304;2024-01-30T04:42:36;98859.16;;;1.34;100.00
967;BME280;56108;48.730;9.304;2024-01-30T04:44:45;98867.13;;;1.26;100.00
967;BME280;56108;48.730;9.304;2024-01-30T04:46:53;98861.81;;;1.29;100.00
967;BME280;56108;48.730;9.304;2024-01-30T04:49:03;98861.88;;;1.26;100.00
967;BME280;56108;48.730;9.304;2024-01-30T04:51:13;98860.84;;;1.38;100.00
967;BME280;56108;48.730;9.304;2024-01-30T04:53:21;98856.50;;;1.35;100.00
967;BME280;56108;48.730;9.304;2024-01-30T04:55:29;98859.25;;;1.26;100.00
967;BME280;56108;48.730;9.304;2024-01-30T04:57:40;98867.25;;;1.15;100.00
967;BME280;56108;48.730;9.304;2024-01-30T04:59:48;98869.06;;;1.10;100.00
967;BME280;56108;48.730;9.304;2024-01-30T05:01:56;98869.91;;;1.09;100.00
967;BME280;56108;48.730;9.304;2024-01-30T05:04:07;98860.25;;;1.13;100.00
967;BME280;56108;48.730;9.304;2024-01-30T05:06:24;98857.66;;;1.13;100.00
967;BME280;56108;48.730;9.304;2024-01-30T05:08:33;98862.84;;;1.17;100.00
967;BME280;56108;48.730;9.304;2024-01-30T05:10:42;98869.03;;;1.12;100.00
967;BME280;56108;48.730;9.304;2024-01-30T05:12:53;98861.97;;;1.17;100.00
967;BME280;56108;48.730;9.304;2024-01-30T05:15:01;98869.75;;;1.24;100.00
967;BME280;56108;48.730;9.304;2024-01-30T05:17:10;98878.44;;;1.31;100.00
967;BME280;56108;48.730;9.304;2024-01-30T05:19:18;98877.72;;;1.15;100.00
967;BME280;56108;48.730;9.304;2024-01-30T05:21:29;98873.22;;;1.26;100.00
967;BME280;56108;48.730;9.304;2024-01-30T05:23:38;98870.72;;;1.14;100.00
967;BME280;56108;48.730;9.304;2024-01-30T05:25:46;98883.78;;;1.20;100.00
967;BME280;56108;48.730;9.304;2024-01-30T05:27:57;98880.31;;;1.17;100.00
967;BME280;56108;48.730;9.304;2024-01-30T05:30:08;98879.41;;;1.21;100.00
967;BME280;56108;48.730;9.304;2024-01-30T05:32:16;98878.75;;;1.00;100.00
967;BME280;56108;48.730;9.304;2024-01-30T05:34:25;98871.88;;;0.90;100.00
967;BME280;56108;48.730;9.304;2024-01-30T05:36:33;98876.31;;;0.85;100.00
967;BME280;56108;48.730;9.304;2024-01-30T05:38:41;98880.78;;;0.74;100.00
967;BME280;56108;48.730;9.304;2024-01-30T05:40:49;98866.13;;;0.53;100.00
967;BME280;56108;48.730;9.304;2024-01-30T05:43:00;98869.53;;;0.61;100.00
967;BME280;56108;48.730;9.304;2024-01-30T05:45:08;98862.63;;;0.54;100.00
967;BME280;56108;48.730;9.304;2024-01-30T05:47:17;98861.72;;;0.58;100.00
967;BME280;56108;48.730;9.304;2024-01-30T05:49:22;98857.41;;;0.52;100.00
967;BME280;56108;48.730;9.304;2024-01-30T05:51:30;98857.28;;;0.65;100.00
967;BME280;56108;48.730;9.304;2024-01-30T05:53:39;98859.06;;;0.63;100.00
967;BME280;56108;48.730;9.304;2024-01-30T05:55:44;98858.16;;;0.62;100.00
967;BME280;56108;48.730;9.304;2024-01-30T05:57:53;98860.78;;;0.64;100.00
967;BME280;56108;48.730;9.304;2024-01-30T06:00:05;98859.78;;;0.78;100.00
967;BME280;56108;48.730;9.304;2024-01-30T06:02:13;98858.88;;;0.81;100.00
967;BME280;56108;48.730;9.304;2024-01-30T06:04:22;98863.97;;;0.95;100.00
967;BME280;56108;48.730;9.304;2024-01-30T06:06:30;98875.16;;;1.11;100.00
967;BME280;56108;48.730;9.304;2024-01-30T06:08:38;98876.03;;;1.08;100.00
967;BME280;56108;48.730;9.304;2024-01-30T06:10:47;98877.63;;;1.23;100.00
967;BME280;56108;48.730;9.304;2024-01-30T06:12:55;98883.84;;;1.16;100.00
967;BME280;56108;48.730;9.304;2024-01-30T06:15:08;98887.47;;;1.02;100.00
967;BME280;56108;48.730;9.304;2024-01-30T06:17:17;98882.28;;;0.99;100.00
967;BME280;56108;48.730;9.304;2024-01-30T06:19:26;98879.69;;;0.95;100.00
967;BME280;56108;48.730;9.304;2024-01-30T06:21:34;98882.25;;;0.98;100.00
967;BME280;56108;48.730;9.304;2024-01-30T06:23:45;98883.00;;;1.09;100.00
967;BME280;56108;48.730;9.304;2024-01-30T06:25:53;98888.03;;;1.29;100.00
967;BME280;56108;48.730;9.304;2024-01-30T06:28:02;98892.41;;;1.30;100.00
967;BME280;56108;48.730;9.304;2024-01-30T06:30:14;98892.56;;;1.16;100.00
967;BME280;56108;48.730;9.304;2024-01-30T06:32:22;98902.31;;;1.03;100.00
967;BME280;56108;48.730;9.304;2024-01-30T06:34:30;98897.97;;;1.01;100.00
967;BME280;56108;48.730;9.304;2024-01-30T06:36:39;98897.09;;;1.00;100.00
967;BME280;56108;48.730;9.304;2024-01-30T06:38:47;98895.41;;;0.96;100.00
967;BME280;56108;48.730;9.304;2024-01-30T06:40:56;98899.00;;;0.83;100.00
967;BME280;56108;48.730;9.304;2024-01-30T06:43:04;98898.25;;;0.72;100.00
967;BME280;56108;48.730;9.304;2024-01-30T06:45:12;98888.63;;;0.72;100.00
967;BME280;56108;48.730;9.304;2024-01-30T06:47:20;98887.00;;;0.64;100.00
967;BME280;56108;48.730;9.304;2024-01-30T06:49:28;98887.03;;;0.58;100.00
967;BME280;56108;48.730;9.304;2024-01-30T06:51:37;98879.19;;;0.55;100.00
967;BME280;56108;48.730;9.304;2024-01-30T06:53:45;98876.59;;;0.53;100.00
967;BME280;56108;48.730;9.304;2024-01-30T06:55:54;98880.97;;;0.51;100.00
967;BME280;56108;48.730;9.304;2024-01-30T06:58:02;98878.41;;;0.48;100.00
967;BME280;56108;48.730;9.304;2024-01-30T07:00:16;98876.59;;;0.51;100.00
967;BME280;56108;48.730;9.304;2024-01-30T07:02:24;98876.66;;;0.45;100.00
967;BME280;56108;48.730;9.304;2024-01-30T07:04:33;98881.75;;;0.61;100.00
967;BME280;56108;48.730;9.304;2024-01-30T07:06:44;98883.50;;;0.62;100.00
967;BME280;56108;48.730;9.304;2024-01-30T07:08:52;98885.19;;;0.69;100.00
967;BME280;56108;48.730;9.304;2024-01-30T07:11:01;98892.22;;;0.62;100.00
967;BME280;56108;48.730;9.304;2024-01-30T07:13:09;98892.22;;;0.62;100.00
967;BME280;56108;48.730;9.304;2024-01-30T07:15:20;98897.53;;;0.58;100.00
967;BME280;56108;48.730;9.304;2024-01-30T07:17:29;98898.34;;;0.63;100.00
967;BME280;56108;48.730;9.304;2024-01-30T07:19:34;98901.81;;;0.65;100.00
967;BME280;56108;48.730;9.304;2024-01-30T07:21:43;98894.75;;;0.71;100.00
967;BME280;56108;48.730;9.304;2024-01-30T07:23:51;98899.00;;;0.83;100.00
967;BME280;56108;48.730;9.304;2024-01-30T07:26:00;98905.25;;;0.71;100.00
967;BME280;56108;48.730;9.304;2024-01-30T07:28:08;98905.25;;;0.71;100.00
967;BME280;56108;48.730;9.304;2024-01-30T07:30:20;98911.25;;;0.84;100.00
967;BME280;56108;48.730;9.304;2024-01-30T07:32:29;98914.69;;;0.88;100.00
967;BME280;56108;48.730;9.304;2024-01-30T07:34:37;98919.06;;;0.90;100.00
967;BME280;56108;48.730;9.304;2024-01-30T07:37:03;98921.59;;;0.99;100.00
967;BME280;56108;48.730;9.304;2024-01-30T07:39:13;98937.22;;;1.10;100.00
967;BME280;56108;48.730;9.304;2024-01-30T07:41:22;98936.28;;;1.13;100.00
967;BME280;56108;48.730;9.304;2024-01-30T07:43:30;98937.25;;;1.06;100.00
967;BME280;56108;48.730;9.304;2024-01-30T07:45:41;98931.94;;;1.12;100.00
967;BME280;56108;48.730;9.304;2024-01-30T07:47:50;98933.59;;;1.22;100.00
967;BME280;56108;48.730;9.304;2024-01-30T07:49:58;98943.13;;;1.27;100.00
967;BME280;56108;48.730;9.304;2024-01-30T07:52:06;98936.94;;;1.35;100.00
967;BME280;56108;48.730;9.304;2024-01-30T07:54:14;98937.03;;;1.24;100.00
967;BME280;56108;48.730;9.304;2024-01-30T07:56:23;98937.97;;;1.20;100.00
967;BME280;56108;48.730;9.304;2024-01-30T07:58:31;98938.91;;;1.13;100.00
967;BME280;56108;48.730;9.304;2024-01-30T08:00:43;98934.59;;;1.10;100.00
967;BME280;56108;48.730;9.304;2024-01-30T08:02:51;98944.09;;;1.19;100.00
967;BME280;56108;48.730;9.304;2024-01-30T08:05:00;98937.91;;;1.27;100.00
967;BME280;56108;48.730;9.304;2024-01-30T08:07:08;98941.44;;;1.22;100.00
967;BME280;56108;48.730;9.304;2024-01-30T08:09:17;98937.81;;;1.34;100.00
967;BME280;56108;48.730;9.304;2024-01-30T08:11:25;98936.94;;;1.35;100.00
967;BME280;56108;48.730;9.304;2024-01-30T08:13:34;98944.69;;;1.44;100.00
967;BME280;56108;48.730;9.304;2024-01-30T08:15:45;98940.28;;;1.49;100.00
967;BME280;56108;48.730;9.304;2024-01-30T08:17:54;98938.56;;;1.46;100.00
967;BME280;56108;48.730;9.304;2024-01-30T08:20:05;98935.06;;;1.44;100.00
967;BME280;56108;48.730;9.304;2024-01-30T08:22:16;98938.63;;;1.39;100.00
967;BME280;56108;48.730;9.304;2024-01-30T08:24:24;98934.03;;;1.59;100.00
967;BME280;56108;48.730;9.304;2024-01-30T08:26:33;98941.78;;;1.67;100.00
967;BME280;56108;48.730;9.304;2024-01-30T08:28:42;98943.41;;;1.77;100.00
967;BME280;56108;48.730;9.304;2024-01-30T08:30:52;98946.00;;;1.83;100.00
967;BME280;56108;48.730;9.304;2024-01-30T08:33:04;98945.91;;;1.88;100.00
967;BME280;56108;48.730;9.304;2024-01-30T08:35:12;98935.06;;;2.15;100.00
967;BME280;56108;48.730;9.304;2024-01-30T08:37:21;98955.22;;;2.12;100.00
967;BME280;56108;48.730;9.304;2024-01-30T08:39:30;98945.66;;;2.09;100.00
967;BME280;56108;48.730;9.304;2024-01-30T08:41:38;98948.22;;;2.12;100.00
967;BME280;56108;48.730;9.304;2024-01-30T08:43:49;98946.38;;;2.17;100.00
967;BME280;56108;48.730;9.304;2024-01-30T08:46:02;98941.75;;;2.36;100.00
967;BME280;56108;48.730;9.304;2024-01-30T08:48:10;98940.63;;;2.52;100.00
967;BME280;56108;48.730;9.304;2024-01-30T08:50:20;98944.22;;;2.47;100.00
967;BME280;56108;48.730;9.304;2024-01-30T08:52:28;98942.38;;;2.52;100.00
967;BME280;56108;48.730;9.304;2024-01-30T08:54:38;98944.69;;;2.72;100.00
967;BME280;56108;48.730;9.304;2024-01-30T08:56:46;98951.50;;;2.83;100.00
967;BME280;56108;48.730;9.304;2024-01-30T08:58:54;98949.06;;;3.22;100.00
967;BME280;56108;48.730;9.304;2024-01-30T09:01:05;98954.78;;;3.44;100.00
967;BME280;56108;48.730;9.304;2024-01-30T09:05:18;98963.06;;;3.69;100.00
967;BME280;56108;48.730;9.304;2024-01-30T09:07:35;98968.59;;;3.57;100.00
967;BME280;56108;48.730;9.304;2024-01-30T09:09:52;98965.06;;;3.58;100.00
967;BME280;56108;48.730;9.304;2024-01-30T09:12:09;98963.94;;;3.71;100.00
967;BME280;56108;48.730;9.304;2024-01-30T09:14:17;98963.50;;;3.91;100.00
967;BME280;56108;48.730;9.304;2024-01-30T09:16:29;98969.97;;;4.16;100.00
967;BME280;56108;48.730;9.304;2024-01-30T09:18:39;98974.16;;;4.27;100.00
967;BME280;56108;48.730;9.304;2024-01-30T09:20:47;98976.50;;;4.78;100.00
967;BME280;56108;48.730;9.304;2024-01-30T09:22:56;98976.09;;;5.29;100.00
967;BME280;56108;48.730;9.304;2024-01-30T09:25:05;98975.28;;;5.92;100.00
967;BME280;56108;48.730;9.304;2024-01-30T09:27:16;98989.59;;;6.44;98.96
967;BME280;56108;48.730;9.304;2024-01-30T09:29:25;98990.59;;;6.69;94.60
967;BME280;56108;48.730;9.304;2024-01-30T09:31:36;98991.81;;;7.39;91.16
967;BME280;56108;48.730;9.304;2024-01-30T09:33:44;99017.13;;;7.97;82.41
967;BME280;56108;48.730;9.304;2024-01-30T09:35:54;99016.09;;;7.76;80.82
967;BME280;56108;48.730;9.304;2024-01-30T09:38:03;99014.09;;;7.33;81.82
967;BME280;56108;48.730;9.304;2024-01-30T09:40:09;99004.28;;;7.35;84.56
967;BME280;56108;48.730;9.304;2024-01-30T09:42:26;99011.19;;;7.66;83.48
967;BME280;56108;48.730;9.304;2024-01-30T09:44:38;99019.03;;;7.94;81.06
967;BME280;56108;48.730;9.304;2024-01-30T09:46:51;99023.81;;;8.07;79.65
967;BME280;56108;48.730;9.304;2024-01-30T09:49:00;99028.41;;;8.51;77.56
967;BME280;56108;48.730;9.304;2024-01-30T09:51:11;99025.81;;;8.73;76.51
967;BME280;56108;48.730;9.304;2024-01-30T09:53:20;99029.75;;;8.62;75.80
967;BME280;56108;48.730;9.304;2024-01-30T09:55:30;99029.31;;;7.78;77.21
967;BME280;56108;48.730;9.304;2024-01-30T09:57:39;99012.38;;;7.30;79.89
967;BME280;56108;48.730;9.304;2024-01-30T09:59:44;99012.81;;;7.18;81.26
967;BME280;56108;48.730;9.304;2024-01-30T10:01:56;99011.78;;;7.22;83.56
967;BME280;56108;48.730;9.304;2024-01-30T10:04:05;99004.59;;;6.99;83.80
967;BME280;56108;48.730;9.304;2024-01-30T10:06:14;99006.03;;;7.10;82.74
967;BME280;56108;48.730;9.304;2024-01-30T10:08:26;99009.00;;;7.77;81.25
967;BME280;56108;48.730;9.304;2024-01-30T10:10:35;99024.81;;;8.05;79.14
967;BME280;56108;48.730;9.304;2024-01-30T10:12:44;99023.41;;;7.95;77.56
967;BME280;56108;48.730;9.304;2024-01-30T10:14:56;99025.91;;;7.74;77.18
967;BME280;56108;48.730;9.304;2024-01-30T10:17:08;99029.47;;;7.73;76.51
967;BME280;56108;48.730;9.304;2024-01-30T10:19:25;99020.44;;;7.54;79.38
967;BME280;56108;48.730;9.304;2024-01-30T10:21:34;99025.13;;;7.96;77.06
967;BME280;56108;48.730;9.304;2024-01-30T10:23:43;99035.72;;;8.21;73.82
967;BME280;56108;48.730;9.304;2024-01-30T10:25:52;99035.88;;;8.41;73.14
967;BME280;56108;48.730;9.304;2024-01-30T10:28:00;99029.44;;;8.70;72.01
967;BME280;56108;48.730;9.304;2024-01-30T10:30:10;99039.25;;;8.68;70.18
967;BME280;56108;48.730;9.304;2024-01-30T10:32:25;99032.84;;;8.74;70.04
967;BME280;56108;48.730;9.304;2024-01-30T10:34:34;99039.00;;;8.52;70.82
967;BME280;56108;48.730;9.304;2024-01-30T10:36:46;99045.16;;;8.53;70.39
967;BME280;56108;48.730;9.304;2024-01-30T10:38:59;99048.56;;;8.56;70.42
967;BME280;56108;48.730;9.304;2024-01-30T10:41:08;99037.50;;;8.91;70.60
967;BME280;56108;48.730;9.304;2024-01-30T10:43:22;99026.50;;;8.78;71.60
967;BME280;56108;48.730;9.304;2024-01-30T10:45:31;99042.59;;;8.50;69.39
967;BME280;56108;48.730;9.304;2024-01-30T10:47:50;99027.09;;;7.91;73.90
967;BME280;56108;48.730;9.304;2024-01-30T10:49:59;99010.78;;;7.78;78.00
967;BME280;56108;48.730;9.304;2024-01-30T10:52:09;99006.09;;;7.84;78.18
967;BME280;56108;48.730;9.304;2024-01-30T10:54:20;98997.63;;;7.98;81.20
967;BME280;56108;48.730;9.304;2024-01-30T10:56:29;98998.16;;;8.08;81.39
967;BME280;56108;48.730;9.304;2024-01-30T10:58:40;98999.31;;;8.24;77.74
967;BME280;56108;48.730;9.304;2024-01-30T11:00:50;98999.38;;;8.23;77.22
967;BME280;56108;48.730;9.304;2024-01-30T11:03:03;99000.94;;;8.28;76.19
967;BME280;56108;48.730;9.304;2024-01-30T11:05:12;98991.91;;;8.10;78.28
967;BME280;56108;48.730;9.304;2024-01-30T11:07:24;98986.66;;;8.32;77.27
967;BME280;56108;48.730;9.304;2024-01-30T11:09:36;98981.06;;;8.17;78.47
967;BME280;56108;48.730;9.304;2024-01-30T11:11:50;98983.13;;;8.08;80.90
967;BME280;56108;48.730;9.304;2024-01-30T11:14:01;98985.91;;;8.05;81.61
967;BME280;56108;48.730;9.304;2024-01-30T11:16:11;98969.63;;;7.91;85.36
967;BME280;56108;48.730;9.304;2024-01-30T11:18:29;98971.09;;;8.23;84.79
967;BME280;56108;48.730;9.304;2024-01-30T11:20:38;98970.03;;;8.51;82.88
967;BME280;56108;48.730;9.304;2024-01-30T11:22:51;98975.19;;;8.32;81.78
967;BME280;56108;48.730;9.304;2024-01-30T11:25:01;98979.50;;;8.36;81.35
967;BME280;56108;48.730;9.304;2024-01-30T11:27:09;98976.75;;;8.38;80.78
967;BME280;56108;48.730;9.304;2024-01-30T11:29:18;98978.72;;;8.78;78.47
967;BME280;56108;48.730;9.304;2024-01-30T11:31:26;98965.88;;;8.67;80.41
967;BME280;56108;48.730;9.304;2024-01-30T11:33:37;98979.50;;;8.36;79.96
967;BME280;56108;48.730;9.304;2024-01-30T11:35:47;98964.41;;;8.13;83.96
967;BME280;56108;48.730;9.304;2024-01-30T11:37:54;98960.22;;;8.29;85.21
967;BME280;56108;48.730;9.304;2024-01-30T11:40:04;98959.47;;;8.73;82.80
967;BME280;56108;48.730;9.304;2024-01-30T11:42:13;98959.31;;;8.98;80.39
967;BME280;56108;48.730;9.304;2024-01-30T11:44:23;98973.25;;;8.82;78.01
967;BME280;56108;48.730;9.304;2024-01-30T11:46:32;98966.38;;;8.31;81.62
967;BME280;56108;48.730;9.304;2024-01-30T11:48:44;98948.91;;;8.26;82.98